Terminal Aerodrome Forecast
Issued by NWS Quad Cities IA IL

Home | Current Version | Previous Version | Text Only | Print | Product List | Glossary On
Versions: 1 2 3 4 5 6 7 8 9 10 11 12 13 14 15 16 17 18 19 20 21 22 23 24 25 26 27 28 29 30 31 32 33
000
FTUS43 KDVN 221800 AAA
TAFDBQ
TAF AMD
KDBQ 221838Z 2219/2318 19005KT 4SM BR OVC007
     FM221900 19005KT P6SM SCT025
     FM222000 16004KT 4SM BR VCSH OVC006
     FM230100 VRB03KT 4SM BR SCT006 SCT014 SCT040
     FM230800 VRB03KT 2SM BR SCT004 BKN150
     FM231100 09003KT 1SM BR VCSH BKN006
     FM231600 12004KT 2SM BR SCT006 BKN012=

USA.gov is the U.S. government's official web portal to all federal, state and local government web resources and services.